createdAt,value
2019-04-23T00:06:06.514Z,17.5
2019-04-23T00:18:12.013Z,17.4
2019-04-23T00:30:16.695Z,17.4
2019-04-23T00:42:36.417Z,17.2
2019-04-23T00:55:03.929Z,17.1
2019-04-23T01:07:10.888Z,17.1
2019-04-23T01:30:53.898Z,16.8
2019-04-23T01:43:02.634Z,16.6
2019-04-23T01:55:21.053Z,16.6
2019-04-23T02:07:29.383Z,16.6
2019-04-23T02:19:28.864Z,16.5
2019-04-23T02:32:01.183Z,16.2
2019-04-23T02:57:18.417Z,16
2019-04-23T03:10:07.179Z,15.9
2019-04-23T03:23:24.683Z,15.7
2019-04-23T03:48:14.435Z,15.5
2019-04-23T04:01:11.604Z,15.3
2019-04-23T04:26:13.039Z,15.2
2019-04-23T04:39:05.072Z,15.2
2019-04-23T05:04:09.367Z,14.9
2019-04-23T05:17:15.088Z,14.9
2019-04-23T05:29:35.814Z,14.9
2019-04-23T05:52:05.823Z,14.9
2019-04-23T06:16:40.981Z,15
2019-04-23T06:28:38.592Z,15
2019-04-23T06:41:15.170Z,15.1
2019-04-23T06:53:28.463Z,15.1
2019-04-23T07:06:10.152Z,15.2
2019-04-23T07:18:40.440Z,15.2
2019-04-23T07:31:07.183Z,15.4
2019-04-23T07:43:27.898Z,15.4
2019-04-23T07:56:07.017Z,15.6
2019-04-23T08:08:16.589Z,16.1
2019-04-23T08:20:41.849Z,16.2
2019-04-23T08:33:23.099Z,16.3
2019-04-23T08:45:52.339Z,16.4
2019-04-23T08:58:39.399Z,17.1
2019-04-23T09:11:41.546Z,17.5
2019-04-23T09:24:09.013Z,17.3
2019-04-23T09:48:50.635Z,17.6
2019-04-23T10:01:25.686Z,18.2
2019-04-23T10:12:44.305Z,18.7
2019-04-23T10:22:50.417Z,18.8
2019-04-23T10:32:55.994Z,19.1
2019-04-23T10:43:01.985Z,19.4
2019-04-23T10:53:42.391Z,19.6
2019-04-23T11:18:18.693Z,19.5
2019-04-23T11:31:23.519Z,19.6
2019-04-23T11:45:38.534Z,19.7
2019-04-23T11:59:30.945Z,20
2019-04-23T12:12:23.359Z,20.3
2019-04-23T12:37:38.973Z,20.9
2019-04-23T12:50:41.528Z,20.9
2019-04-23T13:03:00.379Z,21
2019-04-23T13:28:00.175Z,21
2019-04-23T13:40:29.095Z,21.1
2019-04-23T13:53:16.812Z,21.3
2019-04-23T14:05:32.819Z,21.3
2019-04-23T14:30:19.928Z,21.5
2019-04-23T14:43:01.653Z,21.6
2019-04-23T15:07:26.973Z,21.8
2019-04-23T15:20:02.698Z,21.7
2019-04-23T15:32:53.022Z,21.6
2019-04-23T15:45:14.887Z,21.7
2019-04-23T16:35:01.347Z,21.3
2019-04-23T16:47:27.757Z,21.2
2019-04-23T17:00:37.381Z,21.2
2019-04-23T17:13:29.905Z,21.1
2019-04-23T17:25:55.285Z,20.9
2019-04-23T17:39:02.547Z,20.9
2019-04-23T17:51:19.010Z,20.9
2019-04-23T18:03:54.061Z,20.8
2019-04-23T18:29:14.916Z,20.7
2019-04-23T18:41:31.021Z,20.5
2019-04-23T19:06:29.303Z,20
2019-04-23T19:31:32.997Z,19.5
2019-04-23T19:44:01.010Z,19.4
2019-04-23T20:21:05.755Z,18.6
2019-04-23T20:36:04.832Z,18.5
2019-04-23T20:48:22.167Z,18.2
2019-04-23T21:00:32.266Z,17.9
2019-04-23T21:26:34.974Z,17.6
2019-04-23T21:39:14.961Z,17.3
2019-04-23T21:52:15.579Z,17.2
2019-04-23T22:04:44.065Z,17
2019-04-23T22:17:22.366Z,16.7
2019-04-23T22:29:56.929Z,16.5
2019-04-23T22:42:52.040Z,16.4
2019-04-23T22:55:20.931Z,16.4
2019-04-23T23:08:07.165Z,16.1
2019-04-23T23:33:17.047Z,15.7
2019-04-23T23:46:03.119Z,15.5
